sensor_id;sensor_type;location;lat;lon;timestamp;P1;durP1;ratioP1;P2;durP2;ratioP2
6987;SDS011;3534;49.960;8.018;2023-07-28T00:00:44;5.23;;;2.63;;
6987;SDS011;3534;49.960;8.018;2023-07-28T00:03:11;1.70;;;1.50;;
6987;SDS011;3534;49.960;8.018;2023-07-28T00:05:37;4.63;;;1.50;;
6987;SDS011;3534;49.960;8.018;2023-07-28T00:08:04;6.97;;;2.47;;
6987;SDS011;3534;49.960;8.018;2023-07-28T00:10:31;7.10;;;2.50;;
6987;SDS011;3534;49.960;8.018;2023-07-28T00:12:58;1.90;;;1.80;;
6987;SDS011;3534;49.960;8.018;2023-07-28T00:15:28;2.70;;;1.97;;
6987;SDS011;3534;49.960;8.018;2023-07-28T00:17:55;10.60;;;2.50;;
6987;SDS011;3534;49.960;8.018;2023-07-28T00:20:22;4.30;;;1.83;;
6987;SDS011;3534;49.960;8.018;2023-07-28T00:22:49;5.20;;;2.30;;
6987;SDS011;3534;49.960;8.018;2023-07-28T00:25:16;3.40;;;1.70;;
6987;SDS011;3534;49.960;8.018;2023-07-28T00:27:43;5.20;;;1.50;;
6987;SDS011;3534;49.960;8.018;2023-07-28T00:30:10;1.60;;;1.50;;
6987;SDS011;3534;49.960;8.018;2023-07-28T00:32:39;2.47;;;1.77;;
6987;SDS011;3534;49.960;8.018;2023-07-28T00:35:06;3.97;;;2.00;;
6987;SDS011;3534;49.960;8.018;2023-07-28T00:37:33;2.07;;;1.87;;
6987;SDS011;3534;49.960;8.018;2023-07-28T00:40:00;2.60;;;2.10;;
6987;SDS011;3534;49.960;8.018;2023-07-28T00:42:27;2.83;;;1.53;;
6987;SDS011;3534;49.960;8.018;2023-07-28T00:44:54;2.90;;;2.03;;
6987;SDS011;3534;49.960;8.018;2023-07-28T00:47:20;1.83;;;1.70;;
6987;SDS011;3534;49.960;8.018;2023-07-28T00:49:49;2.30;;;1.20;;
6987;SDS011;3534;49.960;8.018;2023-07-28T00:52:16;2.43;;;1.57;;
6987;SDS011;3534;49.960;8.018;2023-07-28T00:54:42;2.37;;;1.97;;
6987;SDS011;3534;49.960;8.018;2023-07-28T00:57:09;1.80;;;1.67;;
6987;SDS011;3534;49.960;8.018;2023-07-28T00:59:37;6.03;;;1.57;;
6987;SDS011;3534;49.960;8.018;2023-07-28T01:02:04;3.90;;;1.50;;
6987;SDS011;3534;49.960;8.018;2023-07-28T01:04:31;5.00;;;1.67;;
6987;SDS011;3534;49.960;8.018;2023-07-28T01:07:01;5.30;;;2.17;;
6987;SDS011;3534;49.960;8.018;2023-07-28T01:09:36;3.03;;;1.50;;
6987;SDS011;3534;49.960;8.018;2023-07-28T01:12:08;1.80;;;1.50;;
6987;SDS011;3534;49.960;8.018;2023-07-28T01:14:35;2.20;;;1.80;;
6987;SDS011;3534;49.960;8.018;2023-07-28T01:17:02;1.97;;;1.77;;
6987;SDS011;3534;49.960;8.018;2023-07-28T01:19:29;1.57;;;1.40;;
6987;SDS011;3534;49.960;8.018;2023-07-28T01:21:57;1.70;;;1.60;;
6987;SDS011;3534;49.960;8.018;2023-07-28T01:24:42;8.03;;;1.80;;
6987;SDS011;3534;49.960;8.018;2023-07-28T01:27:18;1.67;;;1.57;;
6987;SDS011;3534;49.960;8.018;2023-07-28T01:29:46;1.87;;;1.77;;
6987;SDS011;3534;49.960;8.018;2023-07-28T01:32:13;4.00;;;2.00;;
6987;SDS011;3534;49.960;8.018;2023-07-28T01:34:40;3.67;;;1.80;;
6987;SDS011;3534;49.960;8.018;2023-07-28T01:37:07;3.13;;;1.80;;
6987;SDS011;3534;49.960;8.018;2023-07-28T01:39:34;2.20;;;1.30;;
6987;SDS011;3534;49.960;8.018;2023-07-28T01:42:01;1.70;;;1.37;;
6987;SDS011;3534;49.960;8.018;2023-07-28T01:44:29;2.70;;;1.63;;
6987;SDS011;3534;49.960;8.018;2023-07-28T01:46:56;1.83;;;1.47;;
6987;SDS011;3534;49.960;8.018;2023-07-28T01:49:23;1.90;;;1.80;;
6987;SDS011;3534;49.960;8.018;2023-07-28T01:51:49;1.50;;;1.40;;
6987;SDS011;3534;49.960;8.018;2023-07-28T01:54:16;2.00;;;1.13;;
6987;SDS011;3534;49.960;8.018;2023-07-28T01:56:43;1.40;;;1.30;;
6987;SDS011;3534;49.960;8.018;2023-07-28T01:59:10;2.50;;;1.60;;
6987;SDS011;3534;49.960;8.018;2023-07-28T02:01:39;1.30;;;1.20;;
6987;SDS011;3534;49.960;8.018;2023-07-28T02:04:06;1.67;;;1.37;;
6987;SDS011;3534;49.960;8.018;2023-07-28T02:06:33;3.23;;;1.20;;
6987;SDS011;3534;49.960;8.018;2023-07-28T02:09:00;2.00;;;1.60;;
6987;SDS011;3534;49.960;8.018;2023-07-28T02:11:26;2.73;;;1.50;;
6987;SDS011;3534;49.960;8.018;2023-07-28T02:13:53;1.83;;;1.20;;
6987;SDS011;3534;49.960;8.018;2023-07-28T02:16:20;1.27;;;1.17;;
6987;SDS011;3534;49.960;8.018;2023-07-28T02:18:48;2.70;;;1.30;;
6987;SDS011;3534;49.960;8.018;2023-07-28T02:21:15;1.80;;;1.37;;
6987;SDS011;3534;49.960;8.018;2023-07-28T02:23:42;1.67;;;1.50;;
6987;SDS011;3534;49.960;8.018;2023-07-28T02:26:08;2.80;;;1.40;;
6987;SDS011;3534;49.960;8.018;2023-07-28T02:28:35;4.07;;;1.10;;
6987;SDS011;3534;49.960;8.018;2023-07-28T02:31:02;3.03;;;1.00;;
6987;SDS011;3534;49.960;8.018;2023-07-28T02:33:29;1.17;;;1.07;;
6987;SDS011;3534;49.960;8.018;2023-07-28T02:35:58;1.43;;;1.27;;
6987;SDS011;3534;49.960;8.018;2023-07-28T02:38:25;1.20;;;0.90;;
6987;SDS011;3534;49.960;8.018;2023-07-28T02:40:52;2.90;;;1.10;;
6987;SDS011;3534;49.960;8.018;2023-07-28T02:43:19;3.70;;;1.03;;
6987;SDS011;3534;49.960;8.018;2023-07-28T02:45:47;2.37;;;1.13;;
6987;SDS011;3534;49.960;8.018;2023-07-28T02:48:14;1.30;;;1.20;;
6987;SDS011;3534;49.960;8.018;2023-07-28T02:50:45;1.13;;;1.00;;
6987;SDS011;3534;49.960;8.018;2023-07-28T02:53:13;2.47;;;0.90;;
6987;SDS011;3534;49.960;8.018;2023-07-28T02:55:40;1.50;;;0.90;;
6987;SDS011;3534;49.960;8.018;2023-07-28T02:58:08;1.77;;;1.00;;
6987;SDS011;3534;49.960;8.018;2023-07-28T03:00:36;2.53;;;1.00;;
6987;SDS011;3534;49.960;8.018;2023-07-28T03:03:03;2.50;;;1.00;;
6987;SDS011;3534;49.960;8.018;2023-07-28T03:05:30;0.80;;;0.80;;
6987;SDS011;3534;49.960;8.018;2023-07-28T03:07:57;2.63;;;1.47;;
6987;SDS011;3534;49.960;8.018;2023-07-28T03:10:26;1.03;;;0.80;;
6987;SDS011;3534;49.960;8.018;2023-07-28T03:12:53;4.10;;;1.17;;
6987;SDS011;3534;49.960;8.018;2023-07-28T03:15:20;2.20;;;1.10;;
6987;SDS011;3534;49.960;8.018;2023-07-28T03:17:48;1.20;;;1.10;;
6987;SDS011;3534;49.960;8.018;2023-07-28T03:20:15;3.17;;;0.87;;
6987;SDS011;3534;49.960;8.018;2023-07-28T03:22:42;1.87;;;1.40;;
6987;SDS011;3534;49.960;8.018;2023-07-28T03:25:09;0.90;;;0.80;;
6987;SDS011;3534;49.960;8.018;2023-07-28T03:27:38;1.10;;;1.00;;
6987;SDS011;3534;49.960;8.018;2023-07-28T03:30:05;0.90;;;0.70;;
6987;SDS011;3534;49.960;8.018;2023-07-28T03:32:35;1.20;;;0.80;;
6987;SDS011;3534;49.960;8.018;2023-07-28T03:35:02;1.10;;;0.87;;
6987;SDS011;3534;49.960;8.018;2023-07-28T03:37:30;0.97;;;0.87;;
6987;SDS011;3534;49.960;8.018;2023-07-28T03:39:57;1.27;;;0.70;;
6987;SDS011;3534;49.960;8.018;2023-07-28T03:42:24;3.07;;;1.17;;
6987;SDS011;3534;49.960;8.018;2023-07-28T03:44:52;1.43;;;1.13;;
6987;SDS011;3534;49.960;8.018;2023-07-28T03:47:19;1.00;;;0.80;;
6987;SDS011;3534;49.960;8.018;2023-07-28T03:49:46;1.10;;;0.80;;
6987;SDS011;3534;49.960;8.018;2023-07-28T03:52:13;1.00;;;0.90;;
6987;SDS011;3534;49.960;8.018;2023-07-28T03:54:39;3.00;;;1.33;;
6987;SDS011;3534;49.960;8.018;2023-07-28T03:57:06;1.80;;;1.20;;
6987;SDS011;3534;49.960;8.018;2023-07-28T03:59:34;2.87;;;1.17;;
6987;SDS011;3534;49.960;8.018;2023-07-28T04:02:02;2.80;;;0.90;;
6987;SDS011;3534;49.960;8.018;2023-07-28T04:04:29;1.20;;;1.00;;
6987;SDS011;3534;49.960;8.018;2023-07-28T04:06:56;0.80;;;0.80;;
6987;SDS011;3534;49.960;8.018;2023-07-28T04:09:23;2.20;;;1.17;;
6987;SDS011;3534;49.960;8.018;2023-07-28T04:11:50;0.93;;;0.90;;
6987;SDS011;3534;49.960;8.018;2023-07-28T04:14:17;2.13;;;0.97;;
6987;SDS011;3534;49.960;8.018;2023-07-28T04:16:43;1.20;;;1.00;;
6987;SDS011;3534;49.960;8.018;2023-07-28T04:19:12;3.10;;;0.90;;
6987;SDS011;3534;49.960;8.018;2023-07-28T04:21:38;1.00;;;0.70;;
6987;SDS011;3534;49.960;8.018;2023-07-28T04:24:05;1.40;;;0.90;;
6987;SDS011;3534;49.960;8.018;2023-07-28T04:26:32;0.90;;;0.80;;
6987;SDS011;3534;49.960;8.018;2023-07-28T04:28:59;4.60;;;1.30;;
6987;SDS011;3534;49.960;8.018;2023-07-28T04:31:26;2.70;;;0.80;;
6987;SDS011;3534;49.960;8.018;2023-07-28T04:33:53;6.10;;;0.83;;
6987;SDS011;3534;49.960;8.018;2023-07-28T04:36:21;2.27;;;1.30;;
6987;SDS011;3534;49.960;8.018;2023-07-28T04:38:48;1.87;;;1.17;;
6987;SDS011;3534;49.960;8.018;2023-07-28T04:41:15;1.03;;;0.90;;
6987;SDS011;3534;49.960;8.018;2023-07-28T04:43:41;1.17;;;1.07;;
6987;SDS011;3534;49.960;8.018;2023-07-28T04:46:08;2.63;;;1.20;;
6987;SDS011;3534;49.960;8.018;2023-07-28T04:48:35;1.03;;;0.93;;
6987;SDS011;3534;49.960;8.018;2023-07-28T04:51:02;2.33;;;1.30;;
6987;SDS011;3534;49.960;8.018;2023-07-28T04:53:30;2.07;;;0.87;;
6987;SDS011;3534;49.960;8.018;2023-07-28T04:55:57;1.37;;;1.00;;
6987;SDS011;3534;49.960;8.018;2023-07-28T04:58:24;1.40;;;0.70;;
6987;SDS011;3534;49.960;8.018;2023-07-28T05:00:50;0.90;;;0.80;;
6987;SDS011;3534;49.960;8.018;2023-07-28T05:03:17;3.73;;;0.83;;
6987;SDS011;3534;49.960;8.018;2023-07-28T05:05:44;1.43;;;1.13;;
6987;SDS011;3534;49.960;8.018;2023-07-28T05:08:11;3.90;;;1.03;;
6987;SDS011;3534;49.960;8.018;2023-07-28T05:10:40;1.63;;;0.90;;
6987;SDS011;3534;49.960;8.018;2023-07-28T05:13:07;1.20;;;0.90;;
6987;SDS011;3534;49.960;8.018;2023-07-28T05:15:34;1.40;;;0.97;;
6987;SDS011;3534;49.960;8.018;2023-07-28T05:18:01;1.73;;;0.80;;
6987;SDS011;3534;49.960;8.018;2023-07-28T05:20:28;2.70;;;0.87;;
6987;SDS011;3534;49.960;8.018;2023-07-28T05:22:54;2.80;;;1.00;;
6987;SDS011;3534;49.960;8.018;2023-07-28T05:25:22;0.80;;;0.60;;
6987;SDS011;3534;49.960;8.018;2023-07-28T05:27:50;0.70;;;0.63;;
6987;SDS011;3534;49.960;8.018;2023-07-28T05:30:17;0.80;;;0.60;;
6987;SDS011;3534;49.960;8.018;2023-07-28T05:32:43;2.30;;;0.80;;
6987;SDS011;3534;49.960;8.018;2023-07-28T05:35:11;1.07;;;0.70;;
6987;SDS011;3534;49.960;8.018;2023-07-28T05:37:38;1.27;;;0.90;;
6987;SDS011;3534;49.960;8.018;2023-07-28T05:40:05;2.40;;;0.80;;
6987;SDS011;3534;49.960;8.018;2023-07-28T05:42:32;1.00;;;0.70;;
6987;SDS011;3534;49.960;8.018;2023-07-28T05:45:00;0.70;;;0.60;;
6987;SDS011;3534;49.960;8.018;2023-07-28T05:47:28;0.63;;;0.60;;
6987;SDS011;3534;49.960;8.018;2023-07-28T05:49:55;1.13;;;0.60;;
6987;SDS011;3534;49.960;8.018;2023-07-28T05:52:22;1.53;;;0.60;;
6987;SDS011;3534;49.960;8.018;2023-07-28T05:54:49;0.70;;;0.53;;
6987;SDS011;3534;49.960;8.018;2023-07-28T05:57:15;1.10;;;0.80;;
6987;SDS011;3534;49.960;8.018;2023-07-28T05:59:42;1.23;;;0.67;;
6987;SDS011;3534;49.960;8.018;2023-07-28T06:02:10;0.80;;;0.60;;
6987;SDS011;3534;49.960;8.018;2023-07-28T06:04:37;4.50;;;0.50;;
6987;SDS011;3534;49.960;8.018;2023-07-28T06:07:04;0.70;;;0.50;;
6987;SDS011;3534;49.960;8.018;2023-07-28T06:09:32;0.90;;;0.60;;
6987;SDS011;3534;49.960;8.018;2023-07-28T06:11:59;1.50;;;0.87;;
6987;SDS011;3534;49.960;8.018;2023-07-28T06:14:26;2.87;;;0.80;;
6987;SDS011;3534;49.960;8.018;2023-07-28T06:16:52;0.80;;;0.80;;
6987;SDS011;3534;49.960;8.018;2023-07-28T06:19:20;0.80;;;0.60;;
6987;SDS011;3534;49.960;8.018;2023-07-28T06:21:49;0.90;;;0.90;;
6987;SDS011;3534;49.960;8.018;2023-07-28T06:24:16;0.70;;;0.60;;
6987;SDS011;3534;49.960;8.018;2023-07-28T06:26:44;2.83;;;0.63;;
6987;SDS011;3534;49.960;8.018;2023-07-28T06:29:11;2.30;;;0.67;;
6987;SDS011;3534;49.960;8.018;2023-07-28T06:31:38;2.30;;;0.53;;
6987;SDS011;3534;49.960;8.018;2023-07-28T06:34:04;0.70;;;0.50;;
6987;SDS011;3534;49.960;8.018;2023-07-28T06:36:33;0.70;;;0.50;;
6987;SDS011;3534;49.960;8.018;2023-07-28T06:38:59;4.43;;;0.60;;
6987;SDS011;3534;49.960;8.018;2023-07-28T06:41:26;2.73;;;0.50;;
6987;SDS011;3534;49.960;8.018;2023-07-28T06:43:53;0.80;;;0.60;;
6987;SDS011;3534;49.960;8.018;2023-07-28T06:46:20;1.17;;;0.63;;
6987;SDS011;3534;49.960;8.018;2023-07-28T06:48:47;0.70;;;0.53;;
6987;SDS011;3534;49.960;8.018;2023-07-28T06:51:14;1.07;;;0.60;;
6987;SDS011;3534;49.960;8.018;2023-07-28T06:53:42;4.53;;;0.80;;
6987;SDS011;3534;49.960;8.018;2023-07-28T06:56:09;0.80;;;0.63;;
6987;SDS011;3534;49.960;8.018;2023-07-28T06:58:35;0.90;;;0.60;;
6987;SDS011;3534;49.960;8.018;2023-07-28T07:01:02;0.80;;;0.70;;
6987;SDS011;3534;49.960;8.018;2023-07-28T07:03:29;1.23;;;0.60;;
6987;SDS011;3534;49.960;8.018;2023-07-28T07:05:56;3.70;;;1.13;;
6987;SDS011;3534;49.960;8.018;2023-07-28T07:08:23;0.70;;;0.57;;
6987;SDS011;3534;49.960;8.018;2023-07-28T07:10:51;1.93;;;0.70;;
6987;SDS011;3534;49.960;8.018;2023-07-28T07:13:18;3.80;;;0.70;;
6987;SDS011;3534;49.960;8.018;2023-07-28T07:15:45;1.17;;;0.70;;
6987;SDS011;3534;49.960;8.018;2023-07-28T07:18:12;0.70;;;0.67;;
6987;SDS011;3534;49.960;8.018;2023-07-28T07:20:39;4.07;;;1.70;;
6987;SDS011;3534;49.960;8.018;2023-07-28T07:23:06;5.30;;;2.30;;
6987;SDS011;3534;49.960;8.018;2023-07-28T07:25:33;7.10;;;2.17;;
6987;SDS011;3534;49.960;8.018;2023-07-28T07:28:01;6.23;;;1.03;;
6987;SDS011;3534;49.960;8.018;2023-07-28T07:30:28;3.23;;;0.50;;
6987;SDS011;3534;49.960;8.018;2023-07-28T07:32:55;1.00;;;0.80;;
6987;SDS011;3534;49.960;8.018;2023-07-28T07:35:21;2.60;;;0.50;;
6987;SDS011;3534;49.960;8.018;2023-07-28T07:37:48;4.93;;;0.80;;
6987;SDS011;3534;49.960;8.018;2023-07-28T07:40:15;2.37;;;0.70;;
6987;SDS011;3534;49.960;8.018;2023-07-28T07:42:42;0.90;;;0.57;;
6987;SDS011;3534;49.960;8.018;2023-07-28T07:45:13;0.90;;;0.70;;
6987;SDS011;3534;49.960;8.018;2023-07-28T07:47:40;2.07;;;0.80;;
6987;SDS011;3534;49.960;8.018;2023-07-28T07:50:08;1.33;;;0.70;;
6987;SDS011;3534;49.960;8.018;2023-07-28T07:52:36;3.63;;;0.60;;
6987;SDS011;3534;49.960;8.018;2023-07-28T07:55:06;0.70;;;0.60;;
6987;SDS011;3534;49.960;8.018;2023-07-28T07:57:37;2.83;;;0.60;;
6987;SDS011;3534;49.960;8.018;2023-07-28T08:00:04;0.90;;;0.70;;
6987;SDS011;3534;49.960;8.018;2023-07-28T08:02:33;0.90;;;0.60;;
6987;SDS011;3534;49.960;8.018;2023-07-28T08:05:00;0.80;;;0.67;;
6987;SDS011;3534;49.960;8.018;2023-07-28T08:07:27;2.63;;;0.60;;
6987;SDS011;3534;49.960;8.018;2023-07-28T08:09:54;0.90;;;0.80;;
6987;SDS011;3534;49.960;8.018;2023-07-28T08:12:21;0.80;;;0.73;;
6987;SDS011;3534;49.960;8.018;2023-07-28T08:14:48;0.73;;;0.60;;
6987;SDS011;3534;49.960;8.018;2023-07-28T08:17:15;0.93;;;0.50;;
6987;SDS011;3534;49.960;8.018;2023-07-28T08:19:43;0.70;;;0.53;;
6987;SDS011;3534;49.960;8.018;2023-07-28T08:22:10;1.10;;;0.80;;
6987;SDS011;3534;49.960;8.018;2023-07-28T08:24:37;0.80;;;0.70;;
6987;SDS011;3534;49.960;8.018;2023-07-28T08:27:04;0.80;;;0.70;;
6987;SDS011;3534;49.960;8.018;2023-07-28T08:29:31;5.03;;;0.60;;
6987;SDS011;3534;49.960;8.018;2023-07-28T08:31:58;1.33;;;0.70;;
6987;SDS011;3534;49.960;8.018;2023-07-28T08:34:26;1.00;;;0.90;;
6987;SDS011;3534;49.960;8.018;2023-07-28T08:36:54;1.30;;;0.70;;
6987;SDS011;3534;49.960;8.018;2023-07-28T08:39:21;0.70;;;0.50;;
6987;SDS011;3534;49.960;8.018;2023-07-28T08:41:48;1.83;;;1.07;;
6987;SDS011;3534;49.960;8.018;2023-07-28T08:44:23;1.37;;;0.70;;
6987;SDS011;3534;49.960;8.018;2023-07-28T08:46:51;1.00;;;0.90;;
6987;SDS011;3534;49.960;8.018;2023-07-28T08:49:18;1.13;;;0.87;;
6987;SDS011;3534;49.960;8.018;2023-07-28T08:51:48;2.63;;;0.67;;
6987;SDS011;3534;49.960;8.018;2023-07-28T08:54:16;1.57;;;0.70;;
6987;SDS011;3534;49.960;8.018;2023-07-28T08:56:43;1.67;;;0.90;;
6987;SDS011;3534;49.960;8.018;2023-07-28T08:59:10;0.90;;;0.60;;
6987;SDS011;3534;49.960;8.018;2023-07-28T09:01:38;0.60;;;0.50;;
6987;SDS011;3534;49.960;8.018;2023-07-28T09:04:09;1.37;;;0.90;;
6987;SDS011;3534;49.960;8.018;2023-07-28T09:06:37;1.10;;;0.50;;
6987;SDS011;3534;49.960;8.018;2023-07-28T09:09:05;0.90;;;0.70;;
6987;SDS011;3534;49.960;8.018;2023-07-28T09:11:35;9.20;;;0.90;;
6987;SDS011;3534;49.960;8.018;2023-07-28T09:14:11;0.90;;;0.77;;
6987;SDS011;3534;49.960;8.018;2023-07-28T09:16:38;1.33;;;0.80;;
6987;SDS011;3534;49.960;8.018;2023-07-28T09:19:05;0.70;;;0.63;;
6987;SDS011;3534;49.960;8.018;2023-07-28T09:21:33;0.90;;;0.80;;
6987;SDS011;3534;49.960;8.018;2023-07-28T09:24:00;0.80;;;0.70;;
6987;SDS011;3534;49.960;8.018;2023-07-28T09:26:37;0.80;;;0.77;;
6987;SDS011;3534;49.960;8.018;2023-07-28T09:29:10;0.97;;;0.60;;
6987;SDS011;3534;49.960;8.018;2023-07-28T09:31:38;2.70;;;0.70;;
6987;SDS011;3534;49.960;8.018;2023-07-28T09:34:06;1.27;;;0.70;;
6987;SDS011;3534;49.960;8.018;2023-07-28T09:36:33;4.30;;;0.70;;
6987;SDS011;3534;49.960;8.018;2023-07-28T09:39:01;0.87;;;0.60;;
6987;SDS011;3534;49.960;8.018;2023-07-28T09:41:29;0.70;;;0.50;;
6987;SDS011;3534;49.960;8.018;2023-07-28T09:43:57;2.97;;;0.60;;
6987;SDS011;3534;49.960;8.018;2023-07-28T09:46:24;4.03;;;0.60;;
6987;SDS011;3534;49.960;8.018;2023-07-28T09:51:22;2.80;;;0.97;;
6987;SDS011;3534;49.960;8.018;2023-07-28T09:53:56;0.80;;;0.53;;
6987;SDS011;3534;49.960;8.018;2023-07-28T09:56:27;1.17;;;0.60;;
6987;SDS011;3534;49.960;8.018;2023-07-28T09:58:55;2.03;;;0.87;;
6987;SDS011;3534;49.960;8.018;2023-07-28T10:01:24;3.10;;;0.90;;
6987;SDS011;3534;49.960;8.018;2023-07-28T10:03:52;1.47;;;0.90;;
6987;SDS011;3534;49.960;8.018;2023-07-28T10:06:19;3.40;;;1.50;;
6987;SDS011;3534;49.960;8.018;2023-07-28T10:08:47;0.93;;;0.67;;
6987;SDS011;3534;49.960;8.018;2023-07-28T10:11:14;6.40;;;0.97;;
6987;SDS011;3534;49.960;8.018;2023-07-28T10:13:42;0.90;;;0.80;;
6987;SDS011;3534;49.960;8.018;2023-07-28T10:16:12;2.00;;;0.93;;
6987;SDS011;3534;49.960;8.018;2023-07-28T10:18:40;1.10;;;0.87;;
6987;SDS011;3534;49.960;8.018;2023-07-28T10:21:08;1.60;;;0.70;;
6987;SDS011;3534;49.960;8.018;2023-07-28T10:23:38;1.30;;;0.70;;
6987;SDS011;3534;49.960;8.018;2023-07-28T10:26:05;1.57;;;0.90;;
6987;SDS011;3534;49.960;8.018;2023-07-28T10:28:33;2.03;;;0.80;;
6987;SDS011;3534;49.960;8.018;2023-07-28T10:31:04;1.20;;;1.00;;
6987;SDS011;3534;49.960;8.018;2023-07-28T10:33:34;1.20;;;1.10;;
6987;SDS011;3534;49.960;8.018;2023-07-28T10:36:11;4.30;;;2.03;;
6987;SDS011;3534;49.960;8.018;2023-07-28T10:38:39;3.73;;;1.57;;
6987;SDS011;3534;49.960;8.018;2023-07-28T10:41:12;1.40;;;1.30;;
6987;SDS011;3534;49.960;8.018;2023-07-28T10:43:40;3.03;;;0.93;;
6987;SDS011;3534;49.960;8.018;2023-07-28T10:46:08;1.53;;;1.03;;
6987;SDS011;3534;49.960;8.018;2023-07-28T10:48:40;1.43;;;1.07;;
6987;SDS011;3534;49.960;8.018;2023-07-28T10:51:10;1.20;;;1.10;;
6987;SDS011;3534;49.960;8.018;2023-07-28T10:53:37;3.30;;;1.00;;
6987;SDS011;3534;49.960;8.018;2023-07-28T10:56:04;1.13;;;1.03;;
6987;SDS011;3534;49.960;8.018;2023-07-28T10:58:34;1.57;;;1.00;;
6987;SDS011;3534;49.960;8.018;2023-07-28T11:01:01;1.10;;;1.00;;
6987;SDS011;3534;49.960;8.018;2023-07-28T11:03:28;0.77;;;0.77;;
6987;SDS011;3534;49.960;8.018;2023-07-28T11:05:57;1.20;;;1.00;;
6987;SDS011;3534;49.960;8.018;2023-07-28T11:08:23;3.10;;;1.10;;
6987;SDS011;3534;49.960;8.018;2023-07-28T11:10:51;1.20;;;1.10;;
6987;SDS011;3534;49.960;8.018;2023-07-28T11:13:18;1.57;;;1.10;;
6987;SDS011;3534;49.960;8.018;2023-07-28T11:15:45;2.30;;;1.10;;
6987;SDS011;3534;49.960;8.018;2023-07-28T11:18:11;1.43;;;1.33;;
6987;SDS011;3534;49.960;8.018;2023-07-28T11:20:41;1.43;;;1.33;;
6987;SDS011;3534;49.960;8.018;2023-07-28T11:23:13;1.30;;;1.20;;
6987;SDS011;3534;49.960;8.018;2023-07-28T11:25:40;1.27;;;1.17;;
6987;SDS011;3534;49.960;8.018;2023-07-28T11:28:09;1.27;;;1.17;;
6987;SDS011;3534;49.960;8.018;2023-07-28T11:30:36;1.53;;;1.43;;
6987;SDS011;3534;49.960;8.018;2023-07-28T11:33:04;1.40;;;1.30;;
6987;SDS011;3534;49.960;8.018;2023-07-28T11:35:37;1.47;;;1.20;;
6987;SDS011;3534;49.960;8.018;2023-07-28T11:38:04;5.60;;;2.73;;
6987;SDS011;3534;49.960;8.018;2023-07-28T11:40:33;1.67;;;1.50;;
6987;SDS011;3534;49.960;8.018;2023-07-28T11:43:00;1.67;;;1.30;;
6987;SDS011;3534;49.960;8.018;2023-07-28T11:45:27;1.30;;;1.20;;
6987;SDS011;3534;49.960;8.018;2023-07-28T11:47:56;2.70;;;1.10;;
6987;SDS011;3534;49.960;8.018;2023-07-28T11:50:23;2.73;;;1.50;;
6987;SDS011;3534;49.960;8.018;2023-07-28T11:52:51;2.20;;;2.00;;
6987;SDS011;3534;49.960;8.018;2023-07-28T11:55:18;2.00;;;1.80;;
6987;SDS011;3534;49.960;8.018;2023-07-28T11:57:47;2.00;;;1.80;;
6987;SDS011;3534;49.960;8.018;2023-07-28T12:00:15;3.50;;;1.37;;
6987;SDS011;3534;49.960;8.018;2023-07-28T12:02:42;1.93;;;1.83;;
6987;SDS011;3534;49.960;8.018;2023-07-28T12:05:13;1.70;;;1.60;;
6987;SDS011;3534;49.960;8.018;2023-07-28T12:07:41;8.23;;;2.20;;
6987;SDS011;3534;49.960;8.018;2023-07-28T12:10:13;2.60;;;2.40;;
6987;SDS011;3534;49.960;8.018;2023-07-28T12:12:41;2.73;;;2.50;;
6987;SDS011;3534;49.960;8.018;2023-07-28T12:15:21;2.50;;;1.70;;
6987;SDS011;3534;49.960;8.018;2023-07-28T12:18:06;1.43;;;1.33;;
6987;SDS011;3534;49.960;8.018;2023-07-28T12:20:34;1.67;;;1.53;;
6987;SDS011;3534;49.960;8.018;2023-07-28T12:23:02;2.10;;;2.00;;
6987;SDS011;3534;49.960;8.018;2023-07-28T12:25:29;2.10;;;1.90;;
6987;SDS011;3534;49.960;8.018;2023-07-28T12:27:56;1.77;;;1.67;;
6987;SDS011;3534;49.960;8.018;2023-07-28T12:30:24;1.80;;;1.70;;
6987;SDS011;3534;49.960;8.018;2023-07-28T12:32:51;2.60;;;2.00;;
6987;SDS011;3534;49.960;8.018;2023-07-28T12:35:18;2.40;;;2.20;;
6987;SDS011;3534;49.960;8.018;2023-07-28T12:37:46;2.57;;;2.30;;
6987;SDS011;3534;49.960;8.018;2023-07-28T12:40:12;2.73;;;2.53;;
6987;SDS011;3534;49.960;8.018;2023-07-28T12:42:39;2.83;;;2.53;;
6987;SDS011;3534;49.960;8.018;2023-07-28T12:45:06;3.03;;;2.70;;
6987;SDS011;3534;49.960;8.018;2023-07-28T12:47:35;2.80;;;2.07;;
6987;SDS011;3534;49.960;8.018;2023-07-28T12:50:02;2.33;;;2.13;;
6987;SDS011;3534;49.960;8.018;2023-07-28T12:52:29;2.70;;;2.50;;
6987;SDS011;3534;49.960;8.018;2023-07-28T12:54:56;1.83;;;1.73;;
6987;SDS011;3534;49.960;8.018;2023-07-28T12:57:23;2.00;;;1.90;;
6987;SDS011;3534;49.960;8.018;2023-07-28T12:59:50;1.63;;;1.53;;
6987;SDS011;3534;49.960;8.018;2023-07-28T13:02:17;2.00;;;1.60;;
6987;SDS011;3534;49.960;8.018;2023-07-28T13:04:45;7.33;;;2.00;;
6987;SDS011;3534;49.960;8.018;2023-07-28T13:07:12;1.80;;;1.70;;
6987;SDS011;3534;49.960;8.018;2023-07-28T13:09:39;2.27;;;2.00;;
6987;SDS011;3534;49.960;8.018;2023-07-28T13:12:06;2.10;;;1.90;;
6987;SDS011;3534;49.960;8.018;2023-07-28T13:14:33;3.13;;;1.90;;
6987;SDS011;3534;49.960;8.018;2023-07-28T13:17:00;2.23;;;2.03;;
6987;SDS011;3534;49.960;8.018;2023-07-28T13:19:27;1.70;;;1.60;;
6987;SDS011;3534;49.960;8.018;2023-07-28T13:21:55;1.50;;;1.30;;
6987;SDS011;3534;49.960;8.018;2023-07-28T13:24:22;1.93;;;1.43;;
6987;SDS011;3534;49.960;8.018;2023-07-28T13:26:48;1.13;;;1.03;;
6987;SDS011;3534;49.960;8.018;2023-07-28T13:29:15;1.53;;;1.43;;
6987;SDS011;3534;49.960;8.018;2023-07-28T13:31:42;1.47;;;1.37;;
6987;SDS011;3534;49.960;8.018;2023-07-28T13:34:08;1.60;;;1.50;;
6987;SDS011;3534;49.960;8.018;2023-07-28T13:36:35;1.50;;;1.40;;
6987;SDS011;3534;49.960;8.018;2023-07-28T13:39:03;1.70;;;1.30;;
6987;SDS011;3534;49.960;8.018;2023-07-28T13:41:31;1.63;;;1.53;;
6987;SDS011;3534;49.960;8.018;2023-07-28T13:43:57;2.13;;;1.50;;
6987;SDS011;3534;49.960;8.018;2023-07-28T13:46:24;1.33;;;1.23;;
6987;SDS011;3534;49.960;8.018;2023-07-28T13:48:51;2.23;;;1.23;;
6987;SDS011;3534;49.960;8.018;2023-07-28T13:51:18;1.97;;;1.40;;
6987;SDS011;3534;49.960;8.018;2023-07-28T13:53:45;2.20;;;0.90;;
6987;SDS011;3534;49.960;8.018;2023-07-28T13:56:13;0.70;;;0.63;;
6987;SDS011;3534;49.960;8.018;2023-07-28T13:58:40;1.00;;;0.60;;
6987;SDS011;3534;49.960;8.018;2023-07-28T14:01:07;1.30;;;0.80;;
6987;SDS011;3534;49.960;8.018;2023-07-28T14:03:33;2.13;;;0.70;;
6987;SDS011;3534;49.960;8.018;2023-07-28T14:06:00;0.70;;;0.70;;
6987;SDS011;3534;49.960;8.018;2023-07-28T14:08:27;1.00;;;0.83;;
6987;SDS011;3534;49.960;8.018;2023-07-28T14:10:54;5.33;;;1.10;;
6987;SDS011;3534;49.960;8.018;2023-07-28T14:13:22;1.40;;;1.30;;
6987;SDS011;3534;49.960;8.018;2023-07-28T14:15:49;1.07;;;0.97;;
6987;SDS011;3534;49.960;8.018;2023-07-28T14:18:16;3.07;;;1.20;;
6987;SDS011;3534;49.960;8.018;2023-07-28T14:20:43;1.13;;;1.03;;
6987;SDS011;3534;49.960;8.018;2023-07-28T14:23:22;1.00;;;1.00;;
6987;SDS011;3534;49.960;8.018;2023-07-28T14:25:50;1.70;;;1.20;;
6987;SDS011;3534;49.960;8.018;2023-07-28T14:28:17;1.87;;;0.60;;
6987;SDS011;3534;49.960;8.018;2023-07-28T14:30:46;1.10;;;1.00;;
6987;SDS011;3534;49.960;8.018;2023-07-28T14:33:13;1.77;;;1.33;;
6987;SDS011;3534;49.960;8.018;2023-07-28T14:35:40;1.20;;;1.00;;
6987;SDS011;3534;49.960;8.018;2023-07-28T14:38:07;1.40;;;1.30;;
6987;SDS011;3534;49.960;8.018;2023-07-28T14:40:35;1.90;;;1.47;;
6987;SDS011;3534;49.960;8.018;2023-07-28T14:43:02;1.53;;;1.43;;
6987;SDS011;3534;49.960;8.018;2023-07-28T14:45:29;1.50;;;1.40;;
6987;SDS011;3534;49.960;8.018;2023-07-28T14:47:57;1.43;;;1.33;;
6987;SDS011;3534;49.960;8.018;2023-07-28T14:50:25;1.57;;;1.47;;
6987;SDS011;3534;49.960;8.018;2023-07-28T14:52:52;1.60;;;1.50;;
6987;SDS011;3534;49.960;8.018;2023-07-28T14:55:19;1.30;;;1.20;;
6987;SDS011;3534;49.960;8.018;2023-07-28T14:57:46;1.00;;;1.00;;
6987;SDS011;3534;49.960;8.018;2023-07-28T15:00:12;1.23;;;1.13;;
6987;SDS011;3534;49.960;8.018;2023-07-28T15:02:39;1.20;;;1.10;;
6987;SDS011;3534;49.960;8.018;2023-07-28T15:05:07;1.17;;;1.00;;
6987;SDS011;3534;49.960;8.018;2023-07-28T15:07:34;1.73;;;1.00;;
6987;SDS011;3534;49.960;8.018;2023-07-28T15:10:02;1.10;;;1.03;;
6987;SDS011;3534;49.960;8.018;2023-07-28T15:12:30;1.33;;;1.23;;
6987;SDS011;3534;49.960;8.018;2023-07-28T15:14:57;1.73;;;1.40;;
6987;SDS011;3534;49.960;8.018;2023-07-28T15:17:23;1.50;;;1.40;;
6987;SDS011;3534;49.960;8.018;2023-07-28T15:19:50;1.80;;;1.70;;